sensor_id;sensor_type;location;lat;lon;timestamp;P1;durP1;ratioP1;P2;durP2;ratioP2
20393;SDS011;10356;50.544;9.642;2023-05-10T00:00:30;3.45;;;3.15;;
20393;SDS011;10356;50.544;9.642;2023-05-10T00:02:57;4.00;;;3.60;;
20393;SDS011;10356;50.544;9.642;2023-05-10T00:05:23;4.10;;;3.70;;
20393;SDS011;10356;50.544;9.642;2023-05-10T00:07:50;4.07;;;3.67;;
20393;SDS011;10356;50.544;9.642;2023-05-10T00:10:16;6.18;;;4.15;;
20393;SDS011;10356;50.544;9.642;2023-05-10T00:12:42;3.65;;;3.35;;
20393;SDS011;10356;50.544;9.642;2023-05-10T00:15:10;4.57;;;4.15;;
20393;SDS011;10356;50.544;9.642;2023-05-10T00:17:38;5.75;;;4.00;;
20393;SDS011;10356;50.544;9.642;2023-05-10T00:20:05;4.82;;;3.78;;
20393;SDS011;10356;50.544;9.642;2023-05-10T00:22:32;5.70;;;4.28;;
20393;SDS011;10356;50.544;9.642;2023-05-10T00:24:58;9.13;;;6.20;;
20393;SDS011;10356;50.544;9.642;2023-05-10T00:27:25;6.32;;;4.72;;
20393;SDS011;10356;50.544;9.642;2023-05-10T00:29:51;5.70;;;4.80;;
20393;SDS011;10356;50.544;9.642;2023-05-10T00:32:18;5.15;;;4.30;;
20393;SDS011;10356;50.544;9.642;2023-05-10T00:34:45;3.97;;;3.58;;
20393;SDS011;10356;50.544;9.642;2023-05-10T00:37:12;4.20;;;3.45;;
20393;SDS011;10356;50.544;9.642;2023-05-10T00:39:38;6.65;;;3.53;;
20393;SDS011;10356;50.544;9.642;2023-05-10T00:42:05;3.22;;;2.80;;
20393;SDS011;10356;50.544;9.642;2023-05-10T00:44:31;4.88;;;2.97;;
20393;SDS011;10356;50.544;9.642;2023-05-10T00:46:58;3.03;;;2.25;;
20393;SDS011;10356;50.544;9.642;2023-05-10T00:49:25;2.35;;;2.15;;
20393;SDS011;10356;50.544;9.642;2023-05-10T00:51:53;2.95;;;2.15;;
20393;SDS011;10356;50.544;9.642;2023-05-10T00:54:20;2.38;;;2.17;;
20393;SDS011;10356;50.544;9.642;2023-05-10T00:56:46;3.15;;;2.85;;
20393;SDS011;10356;50.544;9.642;2023-05-10T00:59:14;4.22;;;2.47;;
20393;SDS011;10356;50.544;9.642;2023-05-10T01:01:41;2.25;;;2.05;;
20393;SDS011;10356;50.544;9.642;2023-05-10T01:04:08;2.65;;;2.42;;
20393;SDS011;10356;50.544;9.642;2023-05-10T01:06:35;3.47;;;2.30;;
20393;SDS011;10356;50.544;9.642;2023-05-10T01:09:03;2.15;;;1.73;;
20393;SDS011;10356;50.544;9.642;2023-05-10T01:11:31;2.58;;;1.80;;
20393;SDS011;10356;50.544;9.642;2023-05-10T01:13:57;3.20;;;1.63;;
20393;SDS011;10356;50.544;9.642;2023-05-10T01:16:24;1.85;;;1.75;;
20393;SDS011;10356;50.544;9.642;2023-05-10T01:18:52;2.88;;;1.73;;
20393;SDS011;10356;50.544;9.642;2023-05-10T01:21:23;2.60;;;1.92;;
20393;SDS011;10356;50.544;9.642;2023-05-10T01:24:03;1.77;;;1.55;;
20393;SDS011;10356;50.544;9.642;2023-05-10T01:26:51;2.80;;;2.00;;
20393;SDS011;10356;50.544;9.642;2023-05-10T01:29:36;2.00;;;1.60;;
20393;SDS011;10356;50.544;9.642;2023-05-10T01:32:28;2.25;;;2.00;;
20393;SDS011;10356;50.544;9.642;2023-05-10T01:35:02;1.85;;;1.42;;
20393;SDS011;10356;50.544;9.642;2023-05-10T01:37:34;2.28;;;1.50;;
20393;SDS011;10356;50.544;9.642;2023-05-10T01:40:09;1.88;;;1.73;;
20393;SDS011;10356;50.544;9.642;2023-05-10T01:42:46;1.60;;;1.50;;
20393;SDS011;10356;50.544;9.642;2023-05-10T01:45:18;2.08;;;1.70;;
20393;SDS011;10356;50.544;9.642;2023-05-10T01:47:53;3.47;;;1.70;;
20393;SDS011;10356;50.544;9.642;2023-05-10T01:50:24;2.40;;;1.73;;
20393;SDS011;10356;50.544;9.642;2023-05-10T01:52:54;1.63;;;1.52;;
20393;SDS011;10356;50.544;9.642;2023-05-10T01:55:23;2.33;;;1.70;;
20393;SDS011;10356;50.544;9.642;2023-05-10T01:57:52;1.83;;;1.73;;
20393;SDS011;10356;50.544;9.642;2023-05-10T02:00:25;2.13;;;1.52;;
20393;SDS011;10356;50.544;9.642;2023-05-10T02:02:54;1.25;;;1.15;;
20393;SDS011;10356;50.544;9.642;2023-05-10T02:05:22;2.00;;;1.80;;
20393;SDS011;10356;50.544;9.642;2023-05-10T02:07:50;1.45;;;1.30;;
20393;SDS011;10356;50.544;9.642;2023-05-10T02:10:18;2.10;;;1.90;;
20393;SDS011;10356;50.544;9.642;2023-05-10T02:12:46;3.08;;;1.90;;
20393;SDS011;10356;50.544;9.642;2023-05-10T02:15:15;1.17;;;1.00;;
20393;SDS011;10356;50.544;9.642;2023-05-10T02:17:44;1.00;;;0.90;;
20393;SDS011;10356;50.544;9.642;2023-05-10T02:20:14;0.60;;;0.60;;
20393;SDS011;10356;50.544;9.642;2023-05-10T02:22:43;0.95;;;0.95;;
20393;SDS011;10356;50.544;9.642;2023-05-10T02:25:11;0.88;;;0.60;;
20393;SDS011;10356;50.544;9.642;2023-05-10T02:27:40;0.85;;;0.50;;
20393;SDS011;10356;50.544;9.642;2023-05-10T02:30:09;2.28;;;0.55;;
20393;SDS011;10356;50.544;9.642;2023-05-10T02:32:36;1.20;;;0.60;;
20393;SDS011;10356;50.544;9.642;2023-05-10T02:35:04;0.60;;;0.50;;
20393;SDS011;10356;50.544;9.642;2023-05-10T02:37:33;1.58;;;0.50;;
20393;SDS011;10356;50.544;9.642;2023-05-10T02:40:01;1.00;;;0.30;;
20393;SDS011;10356;50.544;9.642;2023-05-10T02:42:31;0.98;;;0.28;;
20393;SDS011;10356;50.544;9.642;2023-05-10T02:45:01;0.52;;;0.20;;
20393;SDS011;10356;50.544;9.642;2023-05-10T02:47:31;0.90;;;0.10;;
20393;SDS011;10356;50.544;9.642;2023-05-10T02:49:58;0.25;;;0.10;;
20393;SDS011;10356;50.544;9.642;2023-05-10T02:52:25;0.25;;;0.10;;
20393;SDS011;10356;50.544;9.642;2023-05-10T02:54:58;0.10;;;0.10;;
20393;SDS011;10356;50.544;9.642;2023-05-10T02:57:27;0.03;;;0.03;;
20393;SDS011;10356;50.544;9.642;2023-05-10T02:59:57;0.00;;;0.00;;
20393;SDS011;10356;50.544;9.642;2023-05-10T03:02:25;1.75;;;0.03;;
20393;SDS011;10356;50.544;9.642;2023-05-10T03:04:51;0.50;;;0.10;;
20393;SDS011;10356;50.544;9.642;2023-05-10T03:07:18;1.63;;;0.17;;
20393;SDS011;10356;50.544;9.642;2023-05-10T03:09:46;0.77;;;0.10;;
20393;SDS011;10356;50.544;9.642;2023-05-10T03:12:15;0.10;;;0.10;;
20393;SDS011;10356;50.544;9.642;2023-05-10T03:14:55;0.20;;;0.08;;
20393;SDS011;10356;50.544;9.642;2023-05-10T03:17:29;0.10;;;0.10;;
20393;SDS011;10356;50.544;9.642;2023-05-10T03:19:57;0.68;;;0.20;;
20393;SDS011;10356;50.544;9.642;2023-05-10T03:22:25;0.40;;;0.17;;
20393;SDS011;10356;50.544;9.642;2023-05-10T03:24:56;0.20;;;0.20;;
20393;SDS011;10356;50.544;9.642;2023-05-10T03:27:27;0.60;;;0.30;;
20393;SDS011;10356;50.544;9.642;2023-05-10T03:29:55;0.50;;;0.15;;
20393;SDS011;10356;50.544;9.642;2023-05-10T03:32:23;0.38;;;0.22;;
20393;SDS011;10356;50.544;9.642;2023-05-10T03:34:49;2.70;;;0.20;;
20393;SDS011;10356;50.544;9.642;2023-05-10T03:37:16;0.08;;;0.08;;
20393;SDS011;10356;50.544;9.642;2023-05-10T03:39:42;2.92;;;0.10;;
20393;SDS011;10356;50.544;9.642;2023-05-10T03:42:09;1.55;;;0.10;;
20393;SDS011;10356;50.544;9.642;2023-05-10T03:44:38;0.60;;;0.10;;
20393;SDS011;10356;50.544;9.642;2023-05-10T03:47:04;0.40;;;0.10;;
20393;SDS011;10356;50.544;9.642;2023-05-10T03:49:31;0.60;;;0.20;;
20393;SDS011;10356;50.544;9.642;2023-05-10T03:51:58;0.35;;;0.10;;
20393;SDS011;10356;50.544;9.642;2023-05-10T03:54:24;0.77;;;0.10;;
20393;SDS011;10356;50.544;9.642;2023-05-10T03:56:51;2.65;;;0.25;;
20393;SDS011;10356;50.544;9.642;2023-05-10T03:59:17;0.75;;;0.10;;
20393;SDS011;10356;50.544;9.642;2023-05-10T04:01:45;0.10;;;0.10;;
20393;SDS011;10356;50.544;9.642;2023-05-10T04:04:11;1.17;;;0.20;;
20393;SDS011;10356;50.544;9.642;2023-05-10T04:06:38;1.10;;;0.00;;
20393;SDS011;10356;50.544;9.642;2023-05-10T04:09:04;0.73;;;0.10;;
20393;SDS011;10356;50.544;9.642;2023-05-10T04:11:31;1.25;;;0.20;;
20393;SDS011;10356;50.544;9.642;2023-05-10T04:13:57;12.43;;;1.13;;
20393;SDS011;10356;50.544;9.642;2023-05-10T04:16:24;0.20;;;0.20;;
20393;SDS011;10356;50.544;9.642;2023-05-10T04:18:52;2.83;;;0.28;;
20393;SDS011;10356;50.544;9.642;2023-05-10T04:21:19;0.22;;;0.20;;
20393;SDS011;10356;50.544;9.642;2023-05-10T04:23:45;0.30;;;0.10;;
20393;SDS011;10356;50.544;9.642;2023-05-10T04:26:12;0.15;;;0.13;;
20393;SDS011;10356;50.544;9.642;2023-05-10T04:28:39;1.13;;;0.20;;
20393;SDS011;10356;50.544;9.642;2023-05-10T04:31:06;0.65;;;0.22;;
20393;SDS011;10356;50.544;9.642;2023-05-10T04:33:34;2.65;;;0.43;;
20393;SDS011;10356;50.544;9.642;2023-05-10T04:36:02;0.32;;;0.22;;
20393;SDS011;10356;50.544;9.642;2023-05-10T04:38:29;0.28;;;0.20;;
20393;SDS011;10356;50.544;9.642;2023-05-10T04:41:03;1.00;;;0.20;;
20393;SDS011;10356;50.544;9.642;2023-05-10T04:43:30;0.55;;;0.10;;
20393;SDS011;10356;50.544;9.642;2023-05-10T04:45:57;4.32;;;0.43;;
20393;SDS011;10356;50.544;9.642;2023-05-10T04:48:23;1.17;;;0.17;;
20393;SDS011;10356;50.544;9.642;2023-05-10T04:50:50;5.47;;;0.30;;
20393;SDS011;10356;50.544;9.642;2023-05-10T04:53:18;0.20;;;0.20;;
20393;SDS011;10356;50.544;9.642;2023-05-10T04:55:44;0.20;;;0.20;;
20393;SDS011;10356;50.544;9.642;2023-05-10T04:58:11;0.22;;;0.22;;
20393;SDS011;10356;50.544;9.642;2023-05-10T05:00:38;0.47;;;0.32;;
20393;SDS011;10356;50.544;9.642;2023-05-10T05:03:05;1.75;;;0.47;;
20393;SDS011;10356;50.544;9.642;2023-05-10T05:05:31;1.88;;;0.25;;
20393;SDS011;10356;50.544;9.642;2023-05-10T05:07:58;0.45;;;0.30;;
20393;SDS011;10356;50.544;9.642;2023-05-10T05:10:26;0.20;;;0.20;;
20393;SDS011;10356;50.544;9.642;2023-05-10T05:12:52;0.47;;;0.45;;
20393;SDS011;10356;50.544;9.642;2023-05-10T05:15:19;0.40;;;0.40;;
20393;SDS011;10356;50.544;9.642;2023-05-10T05:17:45;0.40;;;0.40;;
20393;SDS011;10356;50.544;9.642;2023-05-10T05:20:12;0.75;;;0.30;;
20393;SDS011;10356;50.544;9.642;2023-05-10T05:22:39;0.55;;;0.55;;
20393;SDS011;10356;50.544;9.642;2023-05-10T05:25:05;0.75;;;0.50;;
20393;SDS011;10356;50.544;9.642;2023-05-10T05:27:34;0.70;;;0.70;;
20393;SDS011;10356;50.544;9.642;2023-05-10T05:30:00;0.60;;;0.50;;
20393;SDS011;10356;50.544;9.642;2023-05-10T05:32:27;1.75;;;0.50;;
20393;SDS011;10356;50.544;9.642;2023-05-10T05:34:53;1.15;;;0.90;;
20393;SDS011;10356;50.544;9.642;2023-05-10T05:37:20;1.23;;;0.70;;
20393;SDS011;10356;50.544;9.642;2023-05-10T05:39:47;0.40;;;0.40;;
20393;SDS011;10356;50.544;9.642;2023-05-10T05:42:14;0.60;;;0.60;;
20393;SDS011;10356;50.544;9.642;2023-05-10T05:44:43;2.75;;;0.60;;
20393;SDS011;10356;50.544;9.642;2023-05-10T05:47:10;2.08;;;0.50;;
20393;SDS011;10356;50.544;9.642;2023-05-10T05:49:37;2.65;;;0.65;;
20393;SDS011;10356;50.544;9.642;2023-05-10T05:52:04;0.45;;;0.45;;
20393;SDS011;10356;50.544;9.642;2023-05-10T05:54:30;1.45;;;0.63;;
20393;SDS011;10356;50.544;9.642;2023-05-10T05:56:58;1.33;;;0.52;;
20393;SDS011;10356;50.544;9.642;2023-05-10T05:59:25;2.17;;;0.70;;
20393;SDS011;10356;50.544;9.642;2023-05-10T06:01:53;2.15;;;0.75;;
20393;SDS011;10356;50.544;9.642;2023-05-10T06:04:20;0.60;;;0.60;;
20393;SDS011;10356;50.544;9.642;2023-05-10T06:06:46;1.88;;;0.60;;
20393;SDS011;10356;50.544;9.642;2023-05-10T06:09:12;2.03;;;0.70;;
20393;SDS011;10356;50.544;9.642;2023-05-10T06:11:39;0.60;;;0.60;;
20393;SDS011;10356;50.544;9.642;2023-05-10T06:14:05;1.25;;;0.63;;
20393;SDS011;10356;50.544;9.642;2023-05-10T06:16:33;0.90;;;0.52;;
20393;SDS011;10356;50.544;9.642;2023-05-10T06:19:00;2.08;;;0.77;;
20393;SDS011;10356;50.544;9.642;2023-05-10T06:21:27;2.05;;;0.90;;
20393;SDS011;10356;50.544;9.642;2023-05-10T06:23:54;0.70;;;0.70;;
20393;SDS011;10356;50.544;9.642;2023-05-10T06:26:21;0.75;;;0.68;;
20393;SDS011;10356;50.544;9.642;2023-05-10T06:28:47;1.80;;;0.70;;
20393;SDS011;10356;50.544;9.642;2023-05-10T06:31:14;0.73;;;0.65;;
20393;SDS011;10356;50.544;9.642;2023-05-10T06:33:41;2.10;;;0.75;;
20393;SDS011;10356;50.544;9.642;2023-05-10T06:36:08;1.85;;;0.63;;
20393;SDS011;10356;50.544;9.642;2023-05-10T06:38:35;4.05;;;0.70;;
20393;SDS011;10356;50.544;9.642;2023-05-10T06:41:02;1.15;;;0.68;;
20393;SDS011;10356;50.544;9.642;2023-05-10T06:43:28;0.88;;;0.70;;
20393;SDS011;10356;50.544;9.642;2023-05-10T06:45:55;0.70;;;0.70;;
20393;SDS011;10356;50.544;9.642;2023-05-10T06:48:21;1.80;;;0.80;;
20393;SDS011;10356;50.544;9.642;2023-05-10T06:50:48;0.82;;;0.80;;
20393;SDS011;10356;50.544;9.642;2023-05-10T06:53:16;0.93;;;0.93;;
20393;SDS011;10356;50.544;9.642;2023-05-10T06:55:42;1.90;;;1.10;;
20393;SDS011;10356;50.544;9.642;2023-05-10T06:58:09;1.55;;;1.10;;
20393;SDS011;10356;50.544;9.642;2023-05-10T07:00:35;2.28;;;1.10;;
20393;SDS011;10356;50.544;9.642;2023-05-10T07:03:05;6.35;;;1.40;;
20393;SDS011;10356;50.544;9.642;2023-05-10T07:05:32;1.15;;;1.05;;
20393;SDS011;10356;50.544;9.642;2023-05-10T07:07:58;1.15;;;1.00;;
20393;SDS011;10356;50.544;9.642;2023-05-10T07:10:26;1.17;;;1.08;;
20393;SDS011;10356;50.544;9.642;2023-05-10T07:12:53;2.80;;;1.40;;
20393;SDS011;10356;50.544;9.642;2023-05-10T07:15:19;2.20;;;1.20;;
20393;SDS011;10356;50.544;9.642;2023-05-10T07:17:46;1.38;;;1.05;;
20393;SDS011;10356;50.544;9.642;2023-05-10T07:20:12;1.20;;;1.10;;
20393;SDS011;10356;50.544;9.642;2023-05-10T07:22:39;2.00;;;1.20;;
20393;SDS011;10356;50.544;9.642;2023-05-10T07:25:06;1.20;;;0.80;;
20393;SDS011;10356;50.544;9.642;2023-05-10T07:27:34;2.13;;;0.90;;
20393;SDS011;10356;50.544;9.642;2023-05-10T07:30:01;3.95;;;0.93;;
20393;SDS011;10356;50.544;9.642;2023-05-10T07:32:27;2.25;;;0.80;;
20393;SDS011;10356;50.544;9.642;2023-05-10T07:34:54;1.58;;;0.68;;
20393;SDS011;10356;50.544;9.642;2023-05-10T07:37:20;2.80;;;0.90;;
20393;SDS011;10356;50.544;9.642;2023-05-10T07:39:46;1.05;;;0.95;;
20393;SDS011;10356;50.544;9.642;2023-05-10T07:42:13;5.32;;;0.85;;
20393;SDS011;10356;50.544;9.642;2023-05-10T07:44:41;0.93;;;0.88;;
20393;SDS011;10356;50.544;9.642;2023-05-10T07:47:08;0.88;;;0.80;;
20393;SDS011;10356;50.544;9.642;2023-05-10T07:49:34;1.98;;;1.10;;
20393;SDS011;10356;50.544;9.642;2023-05-10T07:52:02;0.70;;;0.70;;
20393;SDS011;10356;50.544;9.642;2023-05-10T07:54:29;0.90;;;0.60;;
20393;SDS011;10356;50.544;9.642;2023-05-10T07:56:55;0.85;;;0.80;;
20393;SDS011;10356;50.544;9.642;2023-05-10T07:59:22;3.20;;;0.80;;
20393;SDS011;10356;50.544;9.642;2023-05-10T08:01:50;2.33;;;0.80;;
20393;SDS011;10356;50.544;9.642;2023-05-10T08:04:16;1.20;;;1.00;;
20393;SDS011;10356;50.544;9.642;2023-05-10T08:06:43;1.10;;;0.75;;
20393;SDS011;10356;50.544;9.642;2023-05-10T08:09:09;1.17;;;0.77;;
20393;SDS011;10356;50.544;9.642;2023-05-10T08:11:36;1.38;;;0.95;;
20393;SDS011;10356;50.544;9.642;2023-05-10T08:14:02;0.95;;;0.73;;
20393;SDS011;10356;50.544;9.642;2023-05-10T08:16:29;0.80;;;0.70;;
20393;SDS011;10356;50.544;9.642;2023-05-10T08:18:57;1.00;;;0.90;;
20393;SDS011;10356;50.544;9.642;2023-05-10T08:21:23;1.20;;;1.10;;
20393;SDS011;10356;50.544;9.642;2023-05-10T08:23:51;1.88;;;0.88;;
20393;SDS011;10356;50.544;9.642;2023-05-10T08:26:17;1.08;;;0.90;;
20393;SDS011;10356;50.544;9.642;2023-05-10T08:28:44;1.35;;;0.93;;
20393;SDS011;10356;50.544;9.642;2023-05-10T08:31:10;1.90;;;1.17;;
20393;SDS011;10356;50.544;9.642;2023-05-10T08:33:36;0.80;;;0.80;;
20393;SDS011;10356;50.544;9.642;2023-05-10T08:36:04;0.60;;;0.60;;
20393;SDS011;10356;50.544;9.642;2023-05-10T08:38:31;1.80;;;0.63;;
20393;SDS011;10356;50.544;9.642;2023-05-10T08:40:57;0.75;;;0.63;;
20393;SDS011;10356;50.544;9.642;2023-05-10T08:43:26;1.85;;;0.70;;
20393;SDS011;10356;50.544;9.642;2023-05-10T08:45:54;1.00;;;0.88;;
20393;SDS011;10356;50.544;9.642;2023-05-10T08:48:22;2.17;;;0.70;;
20393;SDS011;10356;50.544;9.642;2023-05-10T08:50:52;7.75;;;1.30;;
20393;SDS011;10356;50.544;9.642;2023-05-10T08:53:21;1.90;;;0.57;;
20393;SDS011;10356;50.544;9.642;2023-05-10T08:55:50;0.80;;;0.80;;
20393;SDS011;10356;50.544;9.642;2023-05-10T08:58:16;1.85;;;0.70;;
20393;SDS011;10356;50.544;9.642;2023-05-10T09:00:44;0.65;;;0.52;;
20393;SDS011;10356;50.544;9.642;2023-05-10T09:03:11;0.93;;;0.60;;
20393;SDS011;10356;50.544;9.642;2023-05-10T09:05:38;0.73;;;0.60;;
20393;SDS011;10356;50.544;9.642;2023-05-10T09:08:06;1.20;;;0.80;;
20393;SDS011;10356;50.544;9.642;2023-05-10T09:10:36;2.17;;;0.70;;
20393;SDS011;10356;50.544;9.642;2023-05-10T09:13:04;0.85;;;0.80;;
20393;SDS011;10356;50.544;9.642;2023-05-10T09:15:31;0.50;;;0.50;;
20393;SDS011;10356;50.544;9.642;2023-05-10T09:17:58;1.25;;;0.45;;
20393;SDS011;10356;50.544;9.642;2023-05-10T09:20:27;1.55;;;0.60;;
20393;SDS011;10356;50.544;9.642;2023-05-10T09:22:53;1.23;;;0.55;;
20393;SDS011;10356;50.544;9.642;2023-05-10T09:25:20;0.68;;;0.55;;
20393;SDS011;10356;50.544;9.642;2023-05-10T09:27:48;1.83;;;0.60;;
20393;SDS011;10356;50.544;9.642;2023-05-10T09:30:16;1.77;;;0.60;;
20393;SDS011;10356;50.544;9.642;2023-05-10T09:32:44;1.08;;;0.90;;
20393;SDS011;10356;50.544;9.642;2023-05-10T09:35:12;2.15;;;0.80;;
20393;SDS011;10356;50.544;9.642;2023-05-10T09:37:40;0.60;;;0.60;;
20393;SDS011;10356;50.544;9.642;2023-05-10T09:40:11;0.52;;;0.52;;
20393;SDS011;10356;50.544;9.642;2023-05-10T09:42:39;1.10;;;0.70;;
20393;SDS011;10356;50.544;9.642;2023-05-10T09:45:08;1.30;;;0.70;;
20393;SDS011;10356;50.544;9.642;2023-05-10T09:47:35;0.77;;;0.77;;
20393;SDS011;10356;50.544;9.642;2023-05-10T09:50:04;0.73;;;0.70;;
20393;SDS011;10356;50.544;9.642;2023-05-10T09:52:46;1.42;;;1.00;;
20393;SDS011;10356;50.544;9.642;2023-05-10T09:55:14;1.13;;;0.75;;
20393;SDS011;10356;50.544;9.642;2023-05-10T09:57:41;0.98;;;0.60;;
20393;SDS011;10356;50.544;9.642;2023-05-10T10:00:09;1.92;;;0.82;;
20393;SDS011;10356;50.544;9.642;2023-05-10T10:02:41;2.33;;;1.02;;
20393;SDS011;10356;50.544;9.642;2023-05-10T10:05:08;1.92;;;1.38;;
20393;SDS011;10356;50.544;9.642;2023-05-10T10:07:34;3.25;;;0.60;;
20393;SDS011;10356;50.544;9.642;2023-05-10T10:10:01;1.48;;;0.85;;
20393;SDS011;10356;50.544;9.642;2023-05-10T10:12:29;0.90;;;0.90;;
20393;SDS011;10356;50.544;9.642;2023-05-10T10:14:56;0.85;;;0.68;;
20393;SDS011;10356;50.544;9.642;2023-05-10T10:17:27;0.95;;;0.80;;
20393;SDS011;10356;50.544;9.642;2023-05-10T10:19:56;0.80;;;0.60;;
20393;SDS011;10356;50.544;9.642;2023-05-10T10:22:23;2.10;;;0.98;;
20393;SDS011;10356;50.544;9.642;2023-05-10T10:24:50;1.52;;;0.60;;
20393;SDS011;10356;50.544;9.642;2023-05-10T10:27:19;1.77;;;0.68;;
20393;SDS011;10356;50.544;9.642;2023-05-10T10:29:52;1.45;;;0.60;;
20393;SDS011;10356;50.544;9.642;2023-05-10T10:32:33;0.75;;;0.70;;
20393;SDS011;10356;50.544;9.642;2023-05-10T10:35:15;0.85;;;0.75;;
20393;SDS011;10356;50.544;9.642;2023-05-10T10:37:45;1.20;;;0.60;;
20393;SDS011;10356;50.544;9.642;2023-05-10T10:40:28;1.52;;;0.90;;
20393;SDS011;10356;50.544;9.642;2023-05-10T10:42:56;1.48;;;0.65;;
20393;SDS011;10356;50.544;9.642;2023-05-10T10:45:23;0.70;;;0.63;;
20393;SDS011;10356;50.544;9.642;2023-05-10T10:47:56;2.75;;;0.63;;
20393;SDS011;10356;50.544;9.642;2023-05-10T10:50:51;1.02;;;0.68;;
20393;SDS011;10356;50.544;9.642;2023-05-10T10:53:22;0.57;;;0.57;;
20393;SDS011;10356;50.544;9.642;2023-05-10T10:55:53;1.50;;;0.70;;
20393;SDS011;10356;50.544;9.642;2023-05-10T10:58:31;0.70;;;0.70;;
20393;SDS011;10356;50.544;9.642;2023-05-10T11:01:10;1.23;;;0.80;;
20393;SDS011;10356;50.544;9.642;2023-05-10T11:03:39;0.82;;;0.70;;
20393;SDS011;10356;50.544;9.642;2023-05-10T11:06:06;1.20;;;0.63;;
20393;SDS011;10356;50.544;9.642;2023-05-10T11:08:34;1.48;;;0.90;;
20393;SDS011;10356;50.544;9.642;2023-05-10T11:11:07;3.13;;;1.05;;
20393;SDS011;10356;50.544;9.642;2023-05-10T11:13:36;2.08;;;0.93;;
20393;SDS011;10356;50.544;9.642;2023-05-10T11:16:11;1.75;;;1.00;;
20393;SDS011;10356;50.544;9.642;2023-05-10T11:18:59;2.90;;;1.20;;
20393;SDS011;10356;50.544;9.642;2023-05-10T11:21:27;4.20;;;1.02;;
20393;SDS011;10356;50.544;9.642;2023-05-10T11:23:55;1.52;;;0.90;;
20393;SDS011;10356;50.544;9.642;2023-05-10T11:26:23;0.77;;;0.70;;
20393;SDS011;10356;50.544;9.642;2023-05-10T11:28:52;1.52;;;0.73;;
20393;SDS011;10356;50.544;9.642;2023-05-10T11:31:21;1.08;;;0.80;;
20393;SDS011;10356;50.544;9.642;2023-05-10T11:33:52;1.60;;;1.00;;
20393;SDS011;10356;50.544;9.642;2023-05-10T11:36:23;2.72;;;1.45;;
20393;SDS011;10356;50.544;9.642;2023-05-10T11:38:51;3.47;;;1.60;;
20393;SDS011;10356;50.544;9.642;2023-05-10T11:41:18;4.88;;;2.15;;
20393;SDS011;10356;50.544;9.642;2023-05-10T11:43:47;4.25;;;1.90;;
20393;SDS011;10356;50.544;9.642;2023-05-10T11:46:15;4.97;;;2.00;;
20393;SDS011;10356;50.544;9.642;2023-05-10T11:48:45;6.45;;;2.13;;
20393;SDS011;10356;50.544;9.642;2023-05-10T11:51:13;6.13;;;2.30;;
20393;SDS011;10356;50.544;9.642;2023-05-10T11:53:41;2.15;;;1.65;;
20393;SDS011;10356;50.544;9.642;2023-05-10T11:56:07;2.38;;;1.58;;
20393;SDS011;10356;50.544;9.642;2023-05-10T11:58:35;5.55;;;1.67;;
20393;SDS011;10356;50.544;9.642;2023-05-10T12:01:03;2.70;;;1.60;;
20393;SDS011;10356;50.544;9.642;2023-05-10T12:03:31;3.85;;;1.80;;
20393;SDS011;10356;50.544;9.642;2023-05-10T12:05:58;2.25;;;1.80;;
20393;SDS011;10356;50.544;9.642;2023-05-10T12:08:26;3.53;;;1.67;;
20393;SDS011;10356;50.544;9.642;2023-05-10T12:11:03;2.17;;;1.65;;
20393;SDS011;10356;50.544;9.642;2023-05-10T12:13:31;2.30;;;1.85;;
20393;SDS011;10356;50.544;9.642;2023-05-10T12:15:57;3.33;;;1.90;;
20393;SDS011;10356;50.544;9.642;2023-05-10T12:18:25;3.72;;;2.03;;
20393;SDS011;10356;50.544;9.642;2023-05-10T12:20:52;2.13;;;1.45;;
20393;SDS011;10356;50.544;9.642;2023-05-10T12:23:19;2.63;;;1.63;;
20393;SDS011;10356;50.544;9.642;2023-05-10T12:25:46;2.92;;;1.50;;
20393;SDS011;10356;50.544;9.642;2023-05-10T12:28:14;1.83;;;1.60;;
20393;SDS011;10356;50.544;9.642;2023-05-10T12:30:41;3.20;;;1.90;;
20393;SDS011;10356;50.544;9.642;2023-05-10T12:33:08;3.10;;;2.03;;
20393;SDS011;10356;50.544;9.642;2023-05-10T12:35:43;2.40;;;2.20;;
20393;SDS011;10356;50.544;9.642;2023-05-10T12:38:27;2.10;;;1.90;;
20393;SDS011;10356;50.544;9.642;2023-05-10T12:41:00;2.95;;;2.20;;
20393;SDS011;10356;50.544;9.642;2023-05-10T12:43:38;5.25;;;3.42;;
20393;SDS011;10356;50.544;9.642;2023-05-10T12:46:08;4.03;;;2.58;;
20393;SDS011;10356;50.544;9.642;2023-05-10T12:48:36;4.00;;;2.10;;
20393;SDS011;10356;50.544;9.642;2023-05-10T12:51:04;2.88;;;2.00;;
20393;SDS011;10356;50.544;9.642;2023-05-10T12:53:34;2.30;;;2.08;;
20393;SDS011;10356;50.544;9.642;2023-05-10T12:56:01;2.17;;;1.90;;
20393;SDS011;10356;50.544;9.642;2023-05-10T12:58:31;2.05;;;1.80;;
20393;SDS011;10356;50.544;9.642;2023-05-10T13:00:59;8.32;;;2.40;;
20393;SDS011;10356;50.544;9.642;2023-05-10T13:03:26;1.88;;;1.67;;
20393;SDS011;10356;50.544;9.642;2023-05-10T13:05:52;1.38;;;1.20;;
20393;SDS011;10356;50.544;9.642;2023-05-10T13:08:19;1.20;;;1.10;;
20393;SDS011;10356;50.544;9.642;2023-05-10T13:10:45;1.27;;;1.17;;
20393;SDS011;10356;50.544;9.642;2023-05-10T13:13:12;2.38;;;1.10;;
20393;SDS011;10356;50.544;9.642;2023-05-10T13:15:39;1.67;;;1.00;;
20393;SDS011;10356;50.544;9.642;2023-05-10T13:18:06;1.65;;;0.90;;
20393;SDS011;10356;50.544;9.642;2023-05-10T13:20:33;2.85;;;1.27;;
20393;SDS011;10356;50.544;9.642;2023-05-10T13:23:00;3.28;;;1.20;;
20393;SDS011;10356;50.544;9.642;2023-05-10T13:25:27;11.68;;;5.25;;
20393;SDS011;10356;50.544;9.642;2023-05-10T13:27:54;7.10;;;2.10;;
20393;SDS011;10356;50.544;9.642;2023-05-10T13:30:20;1.50;;;1.35;;
20393;SDS011;10356;50.544;9.642;2023-05-10T13:32:47;2.63;;;1.40;;
20393;SDS011;10356;50.544;9.642;2023-05-10T13:35:14;2.80;;;1.60;;
20393;SDS011;10356;50.544;9.642;2023-05-10T13:37:41;2.13;;;1.60;;
20393;SDS011;10356;50.544;9.642;2023-05-10T13:40:08;3.40;;;1.90;;
20393;SDS011;10356;50.544;9.642;2023-05-10T13:42:34;3.97;;;1.20;;
20393;SDS011;10356;50.544;9.642;2023-05-10T13:45:01;2.05;;;1.40;;
20393;SDS011;10356;50.544;9.642;2023-05-10T13:47:28;3.80;;;1.77;;
20393;SDS011;10356;50.544;9.642;2023-05-10T13:49:54;0.98;;;0.60;;
20393;SDS011;10356;50.544;9.642;2023-05-10T13:52:22;0.98;;;0.45;;
20393;SDS011;10356;50.544;9.642;2023-05-10T13:54:48;2.97;;;0.65;;
20393;SDS011;10356;50.544;9.642;2023-05-10T13:57:17;0.63;;;0.47;;
20393;SDS011;10356;50.544;9.642;2023-05-10T13:59:43;1.05;;;0.75;;
20393;SDS011;10356;50.544;9.642;2023-05-10T14:02:10;2.25;;;0.70;;
20393;SDS011;10356;50.544;9.642;2023-05-10T14:04:37;0.90;;;0.70;;
20393;SDS011;10356;50.544;9.642;2023-05-10T14:07:03;1.38;;;0.65;;
20393;SDS011;10356;50.544;9.642;2023-05-10T14:09:31;0.93;;;0.55;;
20393;SDS011;10356;50.544;9.642;2023-05-10T14:11:58;0.82;;;0.73;;
20393;SDS011;10356;50.544;9.642;2023-05-10T14:14:24;0.50;;;0.50;;
20393;SDS011;10356;50.544;9.642;2023-05-10T14:16:51;1.80;;;0.77;;
20393;SDS011;10356;50.544;9.642;2023-05-10T14:19:18;1.10;;;0.70;;
20393;SDS011;10356;50.544;9.642;2023-05-10T14:21:44;0.98;;;0.88;;
20393;SDS011;10356;50.544;9.642;2023-05-10T14:24:11;3.15;;;1.10;;
20393;SDS011;10356;50.544;9.642;2023-05-10T14:26:39;2.28;;;1.40;;
20393;SDS011;10356;50.544;9.642;2023-05-10T14:29:05;3.75;;;1.60;;
20393;SDS011;10356;50.544;9.642;2023-05-10T14:31:32;4.28;;;1.30;;
20393;SDS011;10356;50.544;9.642;2023-05-10T14:33:58;3.47;;;1.60;;
20393;SDS011;10356;50.544;9.642;2023-05-10T14:36:25;2.15;;;1.33;;
20393;SDS011;10356;50.544;9.642;2023-05-10T14:38:51;3.08;;;1.42;;
20393;SDS011;10356;50.544;9.642;2023-05-10T14:41:18;4.75;;;1.02;;
20393;SDS011;10356;50.544;9.642;2023-05-10T14:43:45;1.67;;;1.48;;
20393;SDS011;10356;50.544;9.642;2023-05-10T14:46:12;2.40;;;1.58;;
20393;SDS011;10356;50.544;9.642;2023-05-10T14:48:38;2.58;;;1.30;;
20393;SDS011;10356;50.544;9.642;2023-05-10T14:51:05;2.92;;;1.70;;
20393;SDS011;10356;50.544;9.642;2023-05-10T14:53:31;3.00;;;1.50;;